Time;durP1;ratioP1;P1;durP2;ratioP2;P2;SDS_P1;SDS_P2;PMS_P1;PMS_P2;Temp;Humidity;BMP_temperature;BMP_pressure;BME280_temperature;BME280_humidity;BME280_pressure;Samples;Min_cycle;Max_cycle;Signal;HPM_P1;HPM_P2
2022/07/24 00:00:25;;;;;;;8.70;6.10;;;22.30;98.40;;;;;;5128663;27;20493;-72
2022/07/24 00:02:50;;;;;;;9.95;5.40;;;22.30;98.40;;;;;;5129690;27;20035;-72
2022/07/24 00:05:16;;;;;;;11.52;6.32;;;22.20;98.50;;;;;;5128642;27;20512;-72
2022/07/24 00:07:43;;;;;;;8.63;4.88;;;22.20;98.60;;;;;;5127748;27;20654;-72
2022/07/24 00:10:10;;;;;;;8.23;4.90;;;22.20;98.70;;;;;;5129017;27;20052;-72
2022/07/24 00:12:37;;;;;;;10.15;6.35;;;22.20;98.80;;;;;;5129880;27;20035;-72
2022/07/24 00:15:04;;;;;;;13.02;6.20;;;22.10;98.80;;;;;;5126646;27;20040;-72
2022/07/24 00:17:30;;;;;;;8.05;6.10;;;22.10;98.90;;;;;;5128186;27;20032;-72
2022/07/24 00:19:55;;;;;;;9.75;5.07;;;22.10;98.90;;;;;;5127044;27;20082;-72
2022/07/24 00:22:23;;;;;;;10.40;6.35;;;22.10;99.10;;;;;;5129470;27;20591;-72
2022/07/24 00:24:49;;;;;;;11.07;8.30;;;22.10;99.10;;;;;;5127594;27;20089;-71
2022/07/24 00:27:15;;;;;;;11.38;8.48;;;22.10;99.20;;;;;;5127895;27;20104;-71
2022/07/24 00:29:40;;;;;;;12.77;7.85;;;22.10;99.30;;;;;;5129174;27;20416;-72
2022/07/24 00:32:07;;;;;;;12.55;8.50;;;22.10;99.40;;;;;;5126964;27;20464;-72
2022/07/24 00:34:32;;;;;;;10.30;6.93;;;22.10;99.50;;;;;;5126949;27;20141;-72
2022/07/24 00:36:58;;;;;;;11.93;7.53;;;22.00;99.60;;;;;;5129547;27;20052;-72
2022/07/24 00:39:24;;;;;;;10.77;7.22;;;22.00;99.70;;;;;;5130249;27;20047;-72
2022/07/24 00:41:52;;;;;;;11.98;6.90;;;22.00;99.80;;;;;;5129353;27;20051;-72
2022/07/24 00:44:19;;;;;;;9.23;6.10;;;22.00;99.80;;;;;;5124747;27;20040;-72
2022/07/24 00:46:47;;;;;;;11.43;6.70;;;22.00;99.90;;;;;;5127898;27;20032;-72
2022/07/24 00:49:18;;;;;;;7.93;5.90;;;22.00;99.90;;;;;;5128265;27;20583;-72
2022/07/24 00:51:45;;;;;;;11.10;6.55;;;21.90;99.90;;;;;;5124841;27;20055;-71
2022/07/24 00:54:13;;;;;;;8.70;6.47;;;22.00;99.90;;;;;;5127084;27;20220;-72
2022/07/24 00:56:40;;;;;;;9.18;6.00;;;22.00;99.90;;;;;;5128583;27;20039;-72
2022/07/24 00:59:06;;;;;;;10.18;7.07;;;21.90;99.90;;;;;;5126747;27;20092;-71
2022/07/24 01:01:32;;;;;;;10.10;6.68;;;21.90;99.90;;;;;;5128007;27;20047;-72
2022/07/24 01:03:58;;;;;;;10.02;7.00;;;21.90;99.90;;;;;;5128757;27;20122;-71
2022/07/24 01:06:24;;;;;;;9.93;6.55;;;21.90;99.90;;;;;;5129244;27;20539;-72
2022/07/24 01:08:51;;;;;;;8.20;6.22;;;21.90;99.90;;;;;;5127717;27;20135;-71
2022/07/24 01:11:19;;;;;;;14.75;7.00;;;21.90;99.90;;;;;;5126425;27;20403;-72
2022/07/24 01:13:46;;;;;;;9.30;6.43;;;21.90;99.90;;;;;;5128689;27;20085;-72
2022/07/24 01:16:12;;;;;;;12.98;7.18;;;21.80;99.90;;;;;;5128774;27;20043;-72
2022/07/24 01:18:38;;;;;;;8.40;5.45;;;21.80;99.90;;;;;;5129119;27;20184;-72
2022/07/24 01:21:05;;;;;;;14.10;7.50;;;21.80;99.90;;;;;;5128022;27;20606;-72
2022/07/24 01:23:31;;;;;;;10.88;6.93;;;21.80;99.90;;;;;;5128646;27;20031;-72
2022/07/24 01:25:57;;;;;;;15.30;7.18;;;21.80;99.90;;;;;;5129398;27;20035;-72
2022/07/24 01:28:23;;;;;;;13.10;8.02;;;21.70;99.90;;;;;;5127430;27;20081;-72
2022/07/24 01:30:49;;;;;;;15.48;7.05;;;21.70;99.90;;;;;;5128871;27;20092;-72
2022/07/24 01:33:15;;;;;;;11.80;6.93;;;21.70;99.90;;;;;;5126546;27;20039;-72
2022/07/24 01:35:42;;;;;;;11.05;7.30;;;21.70;99.90;;;;;;5127818;27;20078;-72
2022/07/24 01:38:09;;;;;;;13.00;8.48;;;21.70;99.90;;;;;;5128006;27;20589;-72
2022/07/24 01:40:35;;;;;;;11.25;7.30;;;21.70;99.90;;;;;;5127786;27;20070;-72
2022/07/24 01:43:01;;;;;;;9.20;6.63;;;21.70;99.90;;;;;;5126113;27;20050;-72
2022/07/24 01:45:27;;;;;;;11.65;8.55;;;21.60;99.90;;;;;;5128320;27;20494;-72
2022/07/24 01:47:53;;;;;;;9.13;7.20;;;21.60;99.90;;;;;;5127595;27;20039;-72
2022/07/24 01:50:19;;;;;;;10.40;7.18;;;21.50;99.90;;;;;;5127500;27;20039;-72
2022/07/24 01:52:44;;;;;;;13.98;9.57;;;21.50;99.90;;;;;;5126371;27;20584;-72
2022/07/24 01:55:10;;;;;;;11.52;6.90;;;21.50;99.90;;;;;;5125594;27;20059;-72
2022/07/24 01:57:36;;;;;;;12.50;8.38;;;21.50;99.90;;;;;;5127634;27;20188;-72
2022/07/24 02:00:04;;;;;;;13.80;8.85;;;21.50;99.90;;;;;;5127366;27;20043;-72
2022/07/24 02:02:30;;;;;;;15.98;7.88;;;21.50;99.90;;;;;;5124892;27;20113;-72
2022/07/24 02:04:56;;;;;;;12.68;8.10;;;21.50;99.90;;;;;;5128687;27;20552;-72
2022/07/24 02:07:21;;;;;;;11.15;8.27;;;21.50;99.90;;;;;;5125761;27;20039;-72
2022/07/24 02:09:47;;;;;;;9.52;6.75;;;21.50;99.90;;;;;;5128295;27;20410;-72
2022/07/24 02:12:13;;;;;;;13.63;8.07;;;21.50;99.90;;;;;;5125862;27;20134;-72
2022/07/24 02:14:39;;;;;;;11.30;7.68;;;21.40;99.90;;;;;;5108968;27;20467;-72
2022/07/24 02:17:05;;;;;;;11.73;7.35;;;21.50;99.90;;;;;;5127902;27;20036;-72
2022/07/24 02:19:30;;;;;;;15.05;8.88;;;21.40;99.90;;;;;;5126851;27;20473;-72
2022/07/24 02:21:56;;;;;;;10.23;7.30;;;21.40;99.90;;;;;;5126146;27;20757;-72
2022/07/24 02:24:22;;;;;;;12.10;7.65;;;21.40;99.90;;;;;;5124215;27;20524;-72
2022/07/24 02:26:48;;;;;;;13.50;7.22;;;21.40;99.90;;;;;;5127484;27;20043;-72
2022/07/24 02:29:14;;;;;;;14.73;7.50;;;21.30;99.90;;;;;;5126829;27;20051;-72
2022/07/24 02:31:40;;;;;;;11.45;8.32;;;21.30;99.90;;;;;;5125540;27;20458;-73
2022/07/24 02:34:06;;;;;;;10.35;7.40;;;21.30;99.90;;;;;;5123603;27;20566;-72
2022/07/24 02:36:31;;;;;;;11.15;7.88;;;21.30;99.90;;;;;;5127108;27;20051;-72
2022/07/24 02:38:57;;;;;;;11.00;8.07;;;21.30;99.90;;;;;;5126278;27;20039;-72
2022/07/24 02:41:23;;;;;;;13.50;8.52;;;21.30;99.90;;;;;;5126277;27;20070;-72
2022/07/24 02:43:49;;;;;;;15.73;9.02;;;21.30;99.90;;;;;;5127351;27;20531;-72
2022/07/24 02:46:14;;;;;;;11.35;7.28;;;21.30;99.90;;;;;;5125100;27;20035;-72
2022/07/24 02:48:40;;;;;;;12.32;7.90;;;21.30;99.90;;;;;;5124713;27;20654;-72
2022/07/24 02:51:06;;;;;;;13.48;8.15;;;21.20;99.90;;;;;;5127230;27;20525;-72
2022/07/24 02:53:32;;;;;;;14.52;8.82;;;21.20;99.90;;;;;;5126236;27;20109;-72
2022/07/24 02:55:58;;;;;;;11.02;7.43;;;21.20;99.90;;;;;;5127083;27;20042;-72
2022/07/24 02:58:24;;;;;;;13.98;8.80;;;21.20;99.90;;;;;;5125217;27;20517;-72
2022/07/24 03:00:49;;;;;;;13.85;8.70;;;21.20;99.90;;;;;;5125005;27;20062;-72
2022/07/24 03:03:15;;;;;;;15.55;8.65;;;21.20;99.90;;;;;;5126832;27;20820;-72
2022/07/24 03:05:41;;;;;;;12.35;8.80;;;21.10;99.90;;;;;;5107219;27;20046;-72
2022/07/24 03:08:07;;;;;;;13.90;8.32;;;21.10;99.90;;;;;;5124975;27;20047;-72
2022/07/24 03:10:33;;;;;;;12.70;8.65;;;21.10;99.90;;;;;;5126207;27;20079;-72
2022/07/24 03:12:58;;;;;;;22.20;10.82;;;21.10;99.90;;;;;;5126668;27;20035;-72
2022/07/24 03:15:24;;;;;;;15.57;9.25;;;21.10;99.90;;;;;;5124802;27;20039;-72
2022/07/24 03:17:51;;;;;;;12.82;8.43;;;21.10;99.90;;;;;;5124331;27;20513;-72
2022/07/24 03:20:18;;;;;;;12.40;8.18;;;21.10;99.90;;;;;;5124725;27;20058;-72
2022/07/24 03:22:45;;;;;;;13.02;8.48;;;21.10;99.90;;;;;;5125073;27;20047;-72
2022/07/24 03:25:11;;;;;;;13.50;8.70;;;21.10;99.90;;;;;;5126503;27;20059;-72
2022/07/24 03:27:37;;;;;;;17.58;8.25;;;21.00;99.90;;;;;;5124630;27;20501;-72
2022/07/24 03:30:04;;;;;;;11.60;9.05;;;21.00;99.90;;;;;;5124447;27;20546;-72
2022/07/24 03:32:30;;;;;;;16.83;9.68;;;21.20;99.90;;;;;;5123754;27;20039;-72
2022/07/24 03:34:56;;;;;;;15.38;9.52;;;21.00;99.90;;;;;;5126469;27;20418;-72
2022/07/24 03:37:22;;;;;;;14.07;9.90;;;21.00;99.90;;;;;;5126385;27;20112;-72
2022/07/24 03:39:48;;;;;;;16.63;10.02;;;20.90;99.90;;;;;;5125005;27;20121;-71
2022/07/24 03:42:13;;;;;;;14.52;9.43;;;21.00;99.90;;;;;;5125632;27;20036;-71
2022/07/24 03:44:39;;;;;;;14.57;10.40;;;20.90;99.90;;;;;;5124888;27;20557;-71
2022/07/24 03:47:05;;;;;;;16.63;10.68;;;20.90;99.90;;;;;;5125837;27;20102;-71
2022/07/24 03:49:31;;;;;;;12.70;9.02;;;20.90;99.90;;;;;;5124846;27;20036;-71
2022/07/24 03:51:57;;;;;;;13.75;10.63;;;20.90;99.90;;;;;;5126143;27;20028;-71
2022/07/24 03:54:22;;;;;;;13.63;9.70;;;20.90;99.90;;;;;;5126952;27;20043;-71
2022/07/24 03:56:49;;;;;;;17.90;10.52;;;20.90;99.90;;;;;;5124683;27;20462;-71
2022/07/24 03:59:15;;;;;;;14.07;9.20;;;20.80;99.90;;;;;;5128503;27;20040;-71
2022/07/24 04:01:41;;;;;;;15.95;10.35;;;20.80;99.90;;;;;;5128561;27;20626;-71
2022/07/24 04:04:07;;;;;;;20.10;9.60;;;20.80;99.90;;;;;;5128153;27;20044;-71
2022/07/24 04:06:34;;;;;;;15.40;10.02;;;20.80;99.90;;;;;;5129941;27;20517;-72
2022/07/24 04:09:00;;;;;;;13.25;9.35;;;20.80;99.90;;;;;;5129815;27;20129;-71
2022/07/24 04:11:27;;;;;;;15.82;10.77;;;20.80;99.90;;;;;;5128513;27;20085;-71
2022/07/24 04:13:53;;;;;;;17.05;9.90;;;20.80;99.90;;;;;;5128630;27;20104;-71
2022/07/24 04:16:18;;;;;;;13.00;9.75;;;20.80;99.90;;;;;;5127883;27;20120;-71
2022/07/24 04:18:44;;;;;;;18.42;9.60;;;20.80;99.90;;;;;;5127776;27;20042;-70
2022/07/24 04:21:10;;;;;;;19.58;9.93;;;20.80;99.90;;;;;;5128010;27;20516;-71
2022/07/24 04:23:36;;;;;;;16.70;9.82;;;20.80;99.90;;;;;;5129356;27;20451;-71
2022/07/24 04:26:02;;;;;;;21.40;11.35;;;20.70;99.90;;;;;;5127539;27;20304;-71
2022/07/24 04:28:28;;;;;;;13.95;9.48;;;20.70;99.90;;;;;;5129134;27;20451;-70
2022/07/24 04:30:54;;;;;;;15.27;9.18;;;20.70;99.90;;;;;;5129263;27;20043;-71
2022/07/24 04:33:19;;;;;;;14.18;9.70;;;20.70;99.90;;;;;;5129050;27;20039;-71
2022/07/24 04:35:45;;;;;;;15.82;10.50;;;20.70;99.90;;;;;;5128734;27;20181;-71
2022/07/24 04:38:11;;;;;;;17.85;10.18;;;20.70;99.90;;;;;;5128818;27;20111;-71
2022/07/24 04:40:37;;;;;;;16.88;10.32;;;20.70;99.90;;;;;;5127970;27;20032;-71
2022/07/24 04:43:02;;;;;;;15.05;10.73;;;20.70;99.90;;;;;;5126597;27;20047;-71
2022/07/24 04:45:28;;;;;;;15.55;10.40;;;20.70;99.90;;;;;;5128718;27;20044;-71
2022/07/24 04:47:54;;;;;;;17.50;10.05;;;20.70;99.90;;;;;;5125658;27;20493;-71
2022/07/24 04:50:20;;;;;;;17.20;10.80;;;20.70;99.90;;;;;;5126839;27;20058;-71
2022/07/24 04:52:46;;;;;;;21.13;12.32;;;20.70;99.90;;;;;;5128545;27;20044;-71
2022/07/24 04:55:12;;;;;;;15.15;9.45;;;20.70;99.90;;;;;;5128956;27;20123;-71
2022/07/24 04:57:38;;;;;;;16.83;10.15;;;20.70;99.90;;;;;;5127119;27;20629;-71
2022/07/24 05:00:07;;;;;;;17.33;11.27;;;20.70;99.90;;;;;;5110406;27;20031;-71
2022/07/24 05:02:32;;;;;;;16.02;9.93;;;20.70;99.90;;;;;;5127443;27;20470;-71
2022/07/24 05:04:58;;;;;;;18.45;10.45;;;20.70;99.90;;;;;;5127324;27;20112;-71
2022/07/24 05:07:24;;;;;;;14.65;10.40;;;20.70;99.90;;;;;;5127866;27;20039;-71
2022/07/24 05:09:50;;;;;;;14.98;10.25;;;20.70;99.90;;;;;;5126189;27;20100;-71
2022/07/24 05:12:15;;;;;;;16.67;10.45;;;20.70;99.90;;;;;;5110828;27;20043;-71
2022/07/24 05:14:41;;;;;;;18.10;10.52;;;20.70;99.90;;;;;;5126297;27;20043;-71
2022/07/24 05:17:07;;;;;;;14.43;10.18;;;20.70;99.90;;;;;;5126187;27;20140;-71
2022/07/24 05:19:33;;;;;;;19.10;11.70;;;20.60;99.90;;;;;;5127065;27;20038;-71
2022/07/24 05:21:58;;;;;;;14.70;10.25;;;20.60;99.90;;;;;;5128120;27;20413;-71
2022/07/24 05:24:27;;;;;;;14.73;9.88;;;20.70;99.90;;;;;;5126158;27;20178;-71
2022/07/24 05:26:53;;;;;;;16.55;12.00;;;20.70;99.90;;;;;;5128275;27;20039;-71
2022/07/24 05:29:19;;;;;;;16.00;10.38;;;20.70;99.90;;;;;;5142983;27;20055;-71
2022/07/24 05:31:44;;;;;;;15.00;10.23;;;20.70;99.90;;;;;;5127691;27;21309;-71
2022/07/24 05:34:10;;;;;;;20.13;11.35;;;20.70;99.90;;;;;;5128449;27;20122;-71
2022/07/24 05:36:36;;;;;;;14.07;9.80;;;20.70;99.90;;;;;;5127921;27;20040;-71
2022/07/24 05:39:03;;;;;;;18.73;11.10;;;20.70;99.90;;;;;;5126167;27;20951;-71
2022/07/24 05:41:29;;;;;;;18.15;10.10;;;20.70;99.90;;;;;;5126231;27;20035;-71
2022/07/24 05:43:54;;;;;;;18.92;11.18;;;20.70;99.90;;;;;;5126634;27;20031;-71
2022/07/24 05:46:20;;;;;;;16.05;10.48;;;20.70;99.90;;;;;;5127763;27;20506;-71
2022/07/24 05:48:46;;;;;;;15.18;11.75;;;20.70;99.90;;;;;;5124993;27;20046;-71
2022/07/24 05:51:12;;;;;;;16.45;10.65;;;20.70;99.90;;;;;;5125699;27;20047;-71
2022/07/24 05:53:37;;;;;;;16.85;10.20;;;20.70;99.90;;;;;;5125512;27;20107;-71
2022/07/24 05:56:04;;;;;;;17.00;10.25;;;20.70;99.90;;;;;;5125344;27;20168;-71
2022/07/24 05:58:30;;;;;;;17.02;10.32;;;20.70;99.90;;;;;;5125700;27;20028;-71
2022/07/24 06:00:56;;;;;;;15.40;10.75;;;20.80;99.90;;;;;;5125777;27;20414;-71
2022/07/24 06:03:21;;;;;;;13.40;9.43;;;20.70;99.90;;;;;;5126244;27;20044;-71
2022/07/24 06:05:47;;;;;;;17.38;10.10;;;20.70;99.90;;;;;;5123895;27;20035;-71
2022/07/24 06:08:13;;;;;;;13.70;9.27;;;20.80;99.90;;;;;;5126479;27;20035;-71
2022/07/24 06:10:39;;;;;;;17.27;9.45;;;20.80;99.90;;;;;;5126336;27;20913;-71
2022/07/24 06:13:04;;;;;;;14.98;10.43;;;20.80;99.90;;;;;;5109316;27;20573;-71
2022/07/24 06:15:30;;;;;;;14.52;9.75;;;20.80;99.90;;;;;;5126141;27;20042;-70
2022/07/24 06:17:56;;;;;;;12.13;8.68;;;20.90;99.90;;;;;;5127482;27;20036;-71
2022/07/24 06:20:22;;;;;;;16.65;10.05;;;20.90;99.90;;;;;;5126837;27;20066;-71
2022/07/24 06:22:48;;;;;;;12.75;9.18;;;20.80;99.90;;;;;;5123593;27;20176;-71
2022/07/24 06:25:14;;;;;;;12.77;9.02;;;20.90;99.90;;;;;;5127532;27;20039;-71
2022/07/24 06:27:42;;;;;;;16.88;10.35;;;20.90;99.90;;;;;;5126896;27;20505;-71
2022/07/24 06:30:17;;;;;;;15.23;8.82;;;20.90;99.90;;;;;;5127586;27;20039;-71
2022/07/24 06:32:43;;;;;;;15.45;9.77;;;20.90;99.90;;;;;;5126284;27;20075;-71
2022/07/24 06:35:09;;;;;;;16.65;10.27;;;20.90;99.90;;;;;;5128704;27;20043;-71
2022/07/24 06:37:35;;;;;;;16.27;10.50;;;21.00;99.90;;;;;;5126869;27;20085;-71
2022/07/24 06:40:01;;;;;;;12.13;8.98;;;21.00;99.90;;;;;;5126644;27;20105;-71
2022/07/24 06:42:27;;;;;;;14.90;10.65;;;21.00;99.90;;;;;;5125575;27;20536;-71
2022/07/24 06:44:53;;;;;;;14.90;9.75;;;21.00;99.90;;;;;;5107222;27;20042;-71
2022/07/24 06:47:19;;;;;;;15.32;11.02;;;21.00;99.90;;;;;;5127660;27;20509;-71
2022/07/24 06:49:44;;;;;;;18.23;8.85;;;21.00;99.90;;;;;;5141444;27;20043;-71
2022/07/24 06:52:10;;;;;;;18.85;9.98;;;21.00;99.90;;;;;;5126116;27;20078;-71
2022/07/24 06:54:36;;;;;;;14.07;9.73;;;21.10;99.90;;;;;;5125547;27;20071;-71
2022/07/24 06:57:01;;;;;;;14.70;9.93;;;21.10;99.90;;;;;;5123818;27;20135;-71
2022/07/24 06:59:27;;;;;;;14.48;9.85;;;21.10;99.90;;;;;;5127386;27;20117;-71
2022/07/24 07:01:53;;;;;;;16.95;9.82;;;21.10;99.90;;;;;;5108301;27;20410;-70
2022/07/24 07:04:19;;;;;;;13.85;10.60;;;21.10;99.90;;;;;;5125555;27;20034;-72
2022/07/24 07:06:44;;;;;;;16.77;10.70;;;21.10;99.90;;;;;;5127054;27;20040;-72
2022/07/24 07:09:12;;;;;;;14.02;9.18;;;21.20;99.90;;;;;;5124083;27;20051;-72
2022/07/24 07:11:37;;;;;;;14.05;9.55;;;21.20;99.90;;;;;;5126343;27;20144;-72
2022/07/24 07:14:03;;;;;;;15.23;9.50;;;21.20;99.90;;;;;;5122994;27;20039;-72
2022/07/24 07:16:29;;;;;;;14.77;10.40;;;21.20;99.90;;;;;;5141835;27;20122;-72
2022/07/24 07:18:54;;;;;;;16.40;10.10;;;21.20;99.90;;;;;;5126309;27;20112;-72
2022/07/24 07:21:20;;;;;;;16.45;9.65;;;21.20;99.90;;;;;;5125290;27;20074;-72
2022/07/24 07:23:46;;;;;;;13.93;9.07;;;21.20;99.90;;;;;;5124944;27;20043;-72
2022/07/24 07:26:12;;;;;;;17.58;9.82;;;21.20;99.90;;;;;;5125269;27;20051;-72
2022/07/24 07:28:37;;;;;;;15.55;9.95;;;21.30;99.90;;;;;;5123822;27;20112;-71
2022/07/24 07:31:03;;;;;;;12.30;8.43;;;21.30;99.90;;;;;;5124138;27;20040;-72
2022/07/24 07:33:29;;;;;;;14.68;9.50;;;21.30;99.90;;;;;;5127535;27;20114;-72
2022/07/24 07:35:55;;;;;;;16.88;8.82;;;21.30;99.90;;;;;;5130969;27;20453;-71
2022/07/24 07:38:21;;;;;;;11.98;7.82;;;21.40;99.90;;;;;;5130445;27;20047;-72
2022/07/24 07:40:46;;;;;;;12.25;7.72;;;21.40;99.90;;;;;;5130365;27;20161;-72
2022/07/24 07:43:12;;;;;;;11.73;9.35;;;21.40;99.90;;;;;;5127028;27;20075;-72
2022/07/24 07:45:38;;;;;;;14.02;8.13;;;21.40;99.90;;;;;;5128681;27;20104;-72
2022/07/24 07:48:04;;;;;;;14.00;9.20;;;21.50;99.90;;;;;;5128639;27;20040;-72
2022/07/24 07:50:30;;;;;;;14.70;6.95;;;21.50;99.90;;;;;;5130649;27;20040;-72
2022/07/24 07:52:56;;;;;;;12.00;7.32;;;21.50;99.90;;;;;;5129862;27;20417;-72
2022/07/24 07:55:21;;;;;;;13.13;7.65;;;21.50;99.90;;;;;;5129444;27;20051;-72
2022/07/24 07:57:48;;;;;;;13.27;7.68;;;21.50;99.90;;;;;;5128318;27;20125;-72
2022/07/24 08:00:14;;;;;;;23.55;8.57;;;21.60;99.90;;;;;;5127059;27;20173;-71
2022/07/24 08:02:40;;;;;;;13.15;7.60;;;21.60;99.90;;;;;;5129690;27;20035;-71
2022/07/24 08:05:06;;;;;;;11.07;7.40;;;21.60;99.90;;;;;;5128641;27;20505;-72
2022/07/24 08:07:33;;;;;;;8.20;6.38;;;21.60;99.90;;;;;;5110665;27;20335;-72
2022/07/24 08:09:58;;;;;;;8.30;5.72;;;21.70;99.90;;;;;;5129297;27;20055;-72
2022/07/24 08:12:24;;;;;;;9.32;5.82;;;21.70;99.90;;;;;;5128113;27;20062;-72
2022/07/24 08:14:50;;;;;;;8.30;5.50;;;21.70;99.90;;;;;;5126851;27;20626;-72
2022/07/24 08:17:16;;;;;;;9.30;5.85;;;21.70;99.90;;;;;;5126974;27;20035;-71
2022/07/24 08:19:41;;;;;;;10.48;7.28;;;21.70;99.90;;;;;;5130167;27;20031;-72
2022/07/24 08:22:07;;;;;;;8.60;5.07;;;21.80;99.90;;;;;;5128821;27;20105;-72
2022/07/24 08:24:33;;;;;;;9.85;5.90;;;21.80;99.90;;;;;;5127961;27;20540;-72
2022/07/24 08:26:59;;;;;;;9.02;6.10;;;21.80;99.90;;;;;;5130117;27;20311;-72
2022/07/24 08:29:26;;;;;;;9.27;5.43;;;21.80;99.90;;;;;;5128591;27;20106;-72
2022/07/24 08:31:52;;;;;;;7.75;4.65;;;21.80;99.90;;;;;;5127608;27;20050;-72
2022/07/24 08:34:18;;;;;;;8.77;5.63;;;21.90;99.90;;;;;;5128685;27;20100;-72
2022/07/24 08:36:45;;;;;;;9.60;4.93;;;21.90;99.90;;;;;;5129248;27;20027;-72
2022/07/24 08:39:15;;;;;;;7.95;4.38;;;21.90;99.90;;;;;;5127857;27;20047;-72
2022/07/24 08:41:42;;;;;;;7.72;4.78;;;22.00;99.90;;;;;;5126682;27;20128;-72
2022/07/24 08:44:08;;;;;;;5.97;4.40;;;22.00;99.90;;;;;;5127646;27;20034;-72
2022/07/24 08:46:37;;;;;;;6.97;4.90;;;22.00;99.90;;;;;;5128328;27;20039;-72
2022/07/24 08:49:12;;;;;;;7.25;4.68;;;22.00;99.90;;;;;;5129110;27;20044;-72
2022/07/24 08:51:41;;;;;;;6.75;4.22;;;22.10;99.90;;;;;;5126585;27;20123;-72
2022/07/24 08:54:09;;;;;;;6.63;4.55;;;22.10;99.90;;;;;;5129798;27;20029;-71
2022/07/24 08:56:38;;;;;;;7.63;4.93;;;22.10;99.90;;;;;;5128283;27;20080;-72
2022/07/24 08:59:04;;;;;;;7.07;4.75;;;22.20;99.90;;;;;;5127160;27;20161;-71
2022/07/24 09:01:29;;;;;;;6.20;4.55;;;22.20;99.90;;;;;;5129013;27;20069;-71
2022/07/24 09:03:55;;;;;;;6.60;4.78;;;22.20;99.90;;;;;;5126341;27;20509;-72
2022/07/24 09:06:21;;;;;;;6.15;4.32;;;22.30;99.90;;;;;;5127135;27;20063;-72
2022/07/24 09:08:59;;;;;;;6.35;4.22;;;22.30;99.90;;;;;;5124640;27;20040;-72
2022/07/24 09:11:25;;;;;;;7.32;4.00;;;22.30;99.90;;;;;;5128875;27;20031;-72
2022/07/24 09:16:37;;;;;;;5.82;4.18;;;22.50;99.90;;;;;;5128664;27;20586;-72
2022/07/24 09:19:04;;;;;;;8.98;4.50;;;22.40;99.90;;;;;;5127359;27;20027;-71
2022/07/24 09:21:34;;;;;;;6.93;4.32;;;22.40;99.90;;;;;;5127895;27;20073;-72
2022/07/24 09:24:02;;;;;;;5.07;3.53;;;22.50;99.90;;;;;;5127798;27;20107;-71
2022/07/24 09:27:03;;;;;;;5.93;4.20;;;22.60;99.90;;;;;;5109631;27;20036;-72
2022/07/24 09:29:32;;;;;;;7.23;3.97;;;22.50;99.90;;;;;;5063164;28;20119;-71
2022/07/24 09:31:59;;;;;;;4.88;3.60;;;22.50;99.90;;;;;;5115288;27;20070;-72
2022/07/24 09:34:28;;;;;;;5.45;3.55;;;22.60;99.90;;;;;;5127211;27;20089;-72
2022/07/24 09:36:58;;;;;;;6.10;3.90;;;22.60;99.90;;;;;;5128566;27;20031;-71
2022/07/24 09:39:25;;;;;;;6.88;4.10;;;22.70;99.90;;;;;;5126695;27;20062;-72
2022/07/24 09:41:53;;;;;;;6.20;4.28;;;22.70;99.90;;;;;;5127459;27;20040;-72
2022/07/24 09:44:19;;;;;;;5.43;3.35;;;22.70;99.90;;;;;;5126474;27;20032;-72
2022/07/24 09:46:58;;;;;;;6.13;3.50;;;22.70;99.90;;;;;;5128033;27;20121;-71
2022/07/24 09:49:24;;;;;;;5.13;3.63;;;22.70;99.90;;;;;;5129046;27;20630;-72
2022/07/24 09:52:13;;;;;;;5.15;3.38;;;22.80;99.90;;;;;;5124583;27;20507;-71
2022/07/24 09:54:49;;;;;;;8.05;3.15;;;22.80;99.90;;;;;;5128327;27;20063;-71
2022/07/24 09:57:26;;;;;;;6.70;4.18;;;22.90;99.90;;;;;;5127145;27;20079;-71
2022/07/24 09:59:57;;;;;;;5.60;3.65;;;22.90;99.90;;;;;;5127728;27;20564;-71
2022/07/24 10:02:28;;;;;;;5.35;3.30;;;22.90;99.90;;;;;;5126425;27;20050;-71
2022/07/24 10:04:55;;;;;;;4.97;3.45;;;22.90;99.90;;;;;;5127973;27;20040;-72
2022/07/24 10:07:22;;;;;;;4.80;3.17;;;23.00;99.90;;;;;;5125597;27;20042;-71
2022/07/24 10:09:53;;;;;;;4.97;3.72;;;23.00;99.90;;;;;;5126443;27;20134;-72
2022/07/24 10:12:22;;;;;;;5.35;3.55;;;23.10;99.90;;;;;;5125343;27;20558;-71
2022/07/24 10:14:51;;;;;;;3.88;2.88;;;23.10;99.90;;;;;;5126687;27;20088;-71
2022/07/24 10:17:17;;;;;;;7.95;3.97;;;23.10;99.90;;;;;;5108808;27;20121;-71
2022/07/24 10:19:49;;;;;;;5.78;3.50;;;23.20;99.90;;;;;;5143453;27;20044;-72
2022/07/24 10:22:20;;;;;;;4.25;3.63;;;23.10;99.90;;;;;;5127849;27;20047;-71
2022/07/24 10:24:55;;;;;;;;;;;23.20;99.90;;;;;;5126624;27;20046;-71
2022/07/24 10:27:29;;;;;;;4.72;3.20;;;23.20;99.90;;;;;;5127673;27;20054;-71
2022/07/24 10:29:57;;;;;;;6.57;4.22;;;23.20;99.90;;;;;;5125271;27;20593;-72
2022/07/24 10:32:24;;;;;;;5.28;3.40;;;23.30;99.90;;;;;;5127198;27;20036;-71
2022/07/24 10:35:14;;;;;;;4.85;3.30;;;23.30;99.90;;;;;;5126956;27;20563;-72
2022/07/24 10:38:07;;;;;;;7.15;4.10;;;23.40;99.90;;;;;;5125964;27;20481;-71
2022/07/24 10:40:49;;;;;;;4.82;2.78;;;23.40;99.90;;;;;;5128073;27;20541;-71
2022/07/24 10:43:16;;;;;;;;;;;23.50;99.90;;;;;;5125266;27;20115;-72
2022/07/24 10:45:44;;;;;;;6.38;3.67;;;23.40;99.90;;;;;;5126260;27;20093;-72
2022/07/24 10:48:23;;;;;;;4.90;3.22;;;23.40;99.90;;;;;;5126437;27;20624;-72
2022/07/24 10:51:10;;;;;;;5.35;3.88;;;23.50;99.90;;;;;;5126767;27;20043;-72
2022/07/24 10:53:38;;;;;;;4.60;3.20;;;23.50;99.90;;;;;;5125956;27;20040;-71
2022/07/24 10:56:22;;;;;;;6.50;3.22;;;23.50;99.90;;;;;;5127271;27;20578;-71
2022/07/24 10:59:04;;;;;;;4.30;2.70;;;23.60;99.90;;;;;;5126074;27;21861;-71
2022/07/24 11:01:45;;;;;;;5.05;2.95;;;23.60;99.90;;;;;;5127111;27;20051;-72
2022/07/24 11:04:22;;;;;;;5.00;3.00;;;23.70;99.90;;;;;;5125586;27;20044;-71
2022/07/24 11:06:55;;;;;;;4.28;2.90;;;23.70;99.90;;;;;;5125712;27;20101;-72
2022/07/24 11:09:23;;;;;;;5.07;2.88;;;23.70;99.90;;;;;;5126930;27;20056;-72
2022/07/24 11:11:52;;;;;;;3.40;2.45;;;23.70;99.90;;;;;;5128053;27;20807;-72
2022/07/24 11:14:36;;;;;;;4.78;3.42;;;23.80;99.90;;;;;;5127259;27;20044;-71
2022/07/24 11:17:40;;;;;;;4.15;2.78;;;23.80;99.90;;;;;;5130744;27;20042;-72
2022/07/24 11:20:12;;;;;;;5.32;3.47;;;23.80;99.90;;;;;;5111837;27;20039;-72
2022/07/24 11:22:51;;;;;;;4.65;3.17;;;23.90;99.90;;;;;;5128328;27;20104;-72
2022/07/24 11:25:18;;;;;;;5.05;2.58;;;23.90;99.90;;;;;;5128293;27;20047;-72
2022/07/24 11:27:47;;;;;;;4.60;3.33;;;24.00;99.90;;;;;;5126956;27;20051;-71
2022/07/24 11:30:14;;;;;;;4.00;2.90;;;24.00;99.90;;;;;;5130266;27;20470;-71
2022/07/24 11:32:41;;;;;;;4.30;2.60;;;24.10;99.90;;;;;;5128722;27;20577;-72
2022/07/24 11:35:08;;;;;;;6.20;2.88;;;24.10;99.80;;;;;;5129533;27;20036;-71
2022/07/24 11:37:39;;;;;;;5.65;2.70;;;24.10;99.70;;;;;;5131492;27;20523;-71
2022/07/24 11:40:08;;;;;;;3.87;3.10;;;24.20;99.60;;;;;;5131819;27;20506;-74
2022/07/24 11:42:35;;;;;;;5.97;2.80;;;24.20;99.50;;;;;;5128744;27;20063;-70
2022/07/24 11:45:02;;;;;;;3.80;2.88;;;24.30;99.20;;;;;;5127733;27;20070;-71
2022/07/24 11:47:28;;;;;;;4.93;3.17;;;24.40;98.90;;;;;;5130750;27;20092;-75
2022/07/24 11:50:00;;;;;;;6.72;3.08;;;24.40;98.60;;;;;;5129517;27;20440;-74
2022/07/24 11:52:38;;;;;;;4.43;2.90;;;24.40;98.60;;;;;;5129472;27;20042;-77
2022/07/24 11:55:13;;;;;;;7.68;3.50;;;24.40;98.00;;;;;;5129449;27;20104;-76
2022/07/24 11:57:40;;;;;;;3.45;2.42;;;24.30;98.00;;;;;;5130132;27;20164;-76
2022/07/24 12:00:09;;;;;;;4.03;2.90;;;24.40;98.00;;;;;;5129871;27;20039;-74
2022/07/24 12:02:35;;;;;;;4.40;2.90;;;24.40;97.80;;;;;;5130666;27;20041;-74
2022/07/24 12:05:01;;;;;;;4.55;2.67;;;24.50;97.70;;;;;;5128904;27;20050;-73
2022/07/24 12:07:29;;;;;;;4.18;2.83;;;24.50;97.50;;;;;;5128915;27;20494;-74
2022/07/24 12:09:59;;;;;;;5.22;3.53;;;24.50;97.20;;;;;;5130309;27;20727;-74
2022/07/24 12:12:36;;;;;;;4.97;3.50;;;24.60;96.90;;;;;;5128842;27;20114;-73
2022/07/24 12:15:05;;;;;;;7.38;4.10;;;24.60;96.60;;;;;;5128669;27;20740;-73
2022/07/24 12:17:34;;;;;;;5.55;3.55;;;24.70;96.30;;;;;;5128510;27;20529;-72
2022/07/24 12:20:01;;;;;;;5.90;3.05;;;24.70;96.00;;;;;;5127767;27;20114;-71
2022/07/24 12:22:28;;;;;;;5.22;3.35;;;24.70;95.90;;;;;;5129460;27;20043;-72
2022/07/24 12:24:56;;;;;;;5.07;3.45;;;24.70;95.90;;;;;;5128522;27;20088;-72
2022/07/24 12:27:39;;;;;;;3.80;2.60;;;24.70;95.70;;;;;;5128438;27;20051;-72
2022/07/24 12:30:21;;;;;;;4.70;3.80;;;24.80;95.70;;;;;;5129789;27;20048;-72
2022/07/24 12:32:58;;;;;;;4.63;2.90;;;24.80;95.50;;;;;;5126188;27;20043;-72
2022/07/24 12:35:25;;;;;;;6.55;3.55;;;24.80;95.30;;;;;;5129775;27;20508;-72
2022/07/24 12:37:51;;;;;;;3.63;2.97;;;24.80;95.20;;;;;;5144499;27;20034;-71
2022/07/24 12:40:46;;;;;;;4.90;2.85;;;24.90;95.10;;;;;;5130240;27;20058;-72
2022/07/24 12:43:12;;;;;;;5.95;3.10;;;24.90;95.00;;;;;;5109142;27;20047;-72
2022/07/24 12:45:39;;;;;;;7.18;3.78;;;24.90;95.20;;;;;;5128465;27;20035;-71